RYR3029 LEIB-LEBL
Flight info
| Callsign | RYR3029 |
|---|---|
| Flight time | 0h 33m |
| Altitude | 24000 |
| Route | EPAMA N856 MARTA |
| Aircraft | B738/M-SDE3FGILRWY/SB1 |
Departure
| Time | 2026-05-05 10:28 |
|---|---|
| Airport | Ibiza Airport (LEIB) |
Arrival
| Time | 2026-05-05 11:02 |
|---|---|
| Airport | Josep Tarradellas Barcelona-El Prat Airport (LEBL) |
| Time | Latitude | Longitude | Altitude | Speed | Heading |
|---|---|---|---|---|---|
| 2026-05-05 10:22 | 38.87430 | 1.36707 | 7 ft | 8 kts | 137° |
| 2026-05-05 10:22 | 38.87432 | 1.36787 | 9 ft | 13 kts | 61° |
| 2026-05-05 10:22 | 38.87478 | 1.36898 | 8 ft | 17 kts | 62° |
| 2026-05-05 10:23 | 38.87538 | 1.37043 | 8 ft | 19 kts | 63° |
| 2026-05-05 10:23 | 38.87597 | 1.37188 | 7 ft | 18 kts | 62° |
| 2026-05-05 10:23 | 38.87655 | 1.37327 | 8 ft | 16 kts | 62° |
| 2026-05-05 10:23 | 38.87687 | 1.37406 | 8 ft | 8 kts | 62° |
| 2026-05-05 10:24 | 38.87691 | 1.37475 | 7 ft | 9 kts | 119° |
| 2026-05-05 10:24 | 38.87636 | 1.37521 | 8 ft | 10 kts | 152° |
| 2026-05-05 10:24 | 38.87591 | 1.37552 | 8 ft | 6 kts | 150° |
| 2026-05-05 10:24 | 38.87591 | 1.37604 | 8 ft | 8 kts | 63° |
| 2026-05-05 10:25 | 38.87631 | 1.37699 | 8 ft | 16 kts | 62° |
| 2026-05-05 10:25 | 38.87699 | 1.37862 | 9 ft | 25 kts | 62° |
| 2026-05-05 10:25 | 38.87789 | 1.38079 | 8 ft | 28 kts | 62° |
| 2026-05-05 10:25 | 38.87875 | 1.38287 | 8 ft | 26 kts | 62° |
| 2026-05-05 10:26 | 38.87951 | 1.38470 | 9 ft | 19 kts | 62° |
| 2026-05-05 10:26 | 38.88009 | 1.38610 | 8 ft | 17 kts | 62° |
| 2026-05-05 10:26 | 38.88013 | 1.38696 | 8 ft | 10 kts | 142° |
| 2026-05-05 10:26 | 38.87951 | 1.38717 | 10 ft | 10 kts | 194° |
| 2026-05-05 10:27 | 38.87888 | 1.38693 | 11 ft | 9 kts | 197° |
| 2026-05-05 10:27 | 38.87837 | 1.38649 | 10 ft | 9 kts | 238° |
| 2026-05-05 10:27 | 38.87788 | 1.38528 | 12 ft | 33 kts | 242° |
| 2026-05-05 10:27 | 38.87567 | 1.37995 | 13 ft | 100 kts | 242° |
| 2026-05-05 10:28 | 38.87152 | 1.36989 | 17 ft | 152 kts | 242° |
| 2026-05-05 10:28 | 38.86653 | 1.35747 | 596 ft | 152 kts | 242° |
| 2026-05-05 10:28 | 38.86172 | 1.34527 | 1244 ft | 161 kts | 244° |
| 2026-05-05 10:28 | 38.85644 | 1.33154 | 1672 ft | 180 kts | 244° |
| 2026-05-05 10:29 | 38.85069 | 1.31669 | 2148 ft | 193 kts | 244° |
| 2026-05-05 10:29 | 38.84442 | 1.30069 | 2466 ft | 209 kts | 244° |
| 2026-05-05 10:29 | 38.83738 | 1.28284 | 2671 ft | 239 kts | 244° |
| 2026-05-05 10:29 | 38.83209 | 1.26194 | 3284 ft | 252 kts | 270° |
| 2026-05-05 10:30 | 38.83709 | 1.24078 | 4244 ft | 255 kts | 304° |
| 2026-05-05 10:30 | 38.85087 | 1.22572 | 5032 ft | 268 kts | 326° |
| 2026-05-05 10:30 | 38.86641 | 1.21284 | 6141 ft | 259 kts | 323° |
| 2026-05-05 10:30 | 38.88106 | 1.20006 | 7269 ft | 253 kts | 322° |
| 2026-05-05 10:31 | 38.89557 | 1.18698 | 8126 ft | 257 kts | 321° |
| 2026-05-05 10:31 | 38.91022 | 1.17353 | 8966 ft | 261 kts | 321° |
| 2026-05-05 10:31 | 38.92603 | 1.16180 | 9835 ft | 269 kts | 341° |
| 2026-05-05 10:31 | 38.94517 | 1.16057 | 10356 ft | 292 kts | 6° |
| 2026-05-05 10:32 | 38.96599 | 1.16644 | 10570 ft | 320 kts | 11° |
| 2026-05-05 10:32 | 38.98834 | 1.17393 | 10881 ft | 342 kts | 12° |
| 2026-05-05 10:32 | 39.01163 | 1.18203 | 11531 ft | 350 kts | 12° |
| 2026-05-05 10:32 | 39.03530 | 1.19026 | 12302 ft | 355 kts | 12° |
| 2026-05-05 10:33 | 39.05932 | 1.19850 | 13079 ft | 360 kts | 11° |
| 2026-05-05 10:33 | 39.08378 | 1.20678 | 13823 ft | 366 kts | 11° |
| 2026-05-05 10:33 | 39.10858 | 1.21510 | 14500 ft | 371 kts | 10° |
| 2026-05-05 10:33 | 39.13374 | 1.22348 | 15209 ft | 376 kts | 10° |
| 2026-05-05 10:34 | 39.15922 | 1.23195 | 15874 ft | 381 kts | 9° |
| 2026-05-05 10:34 | 39.18510 | 1.24053 | 16545 ft | 386 kts | 9° |
| 2026-05-05 10:34 | 39.21126 | 1.24920 | 17226 ft | 391 kts | 9° |
| 2026-05-05 10:34 | 39.23776 | 1.25800 | 17897 ft | 396 kts | 9° |
| 2026-05-05 10:35 | 39.26460 | 1.26691 | 18519 ft | 401 kts | 9° |
| 2026-05-05 10:35 | 39.29175 | 1.27593 | 19098 ft | 405 kts | 9° |
| 2026-05-05 10:35 | 39.31921 | 1.28507 | 19721 ft | 408 kts | 9° |
| 2026-05-05 10:35 | 39.34666 | 1.29423 | 20487 ft | 407 kts | 8° |
| 2026-05-05 10:36 | 39.37399 | 1.30337 | 21265 ft | 405 kts | 8° |
| 2026-05-05 10:36 | 39.40131 | 1.31250 | 21992 ft | 405 kts | 8° |
| 2026-05-05 10:36 | 39.42862 | 1.32162 | 22698 ft | 406 kts | 8° |
| 2026-05-05 10:36 | 39.45596 | 1.33075 | 23428 ft | 405 kts | 8° |
| 2026-05-05 10:37 | 39.48333 | 1.33989 | 23885 ft | 408 kts | 8° |
| 2026-05-05 10:37 | 39.51081 | 1.34908 | 23920 ft | 407 kts | 8° |
| 2026-05-05 10:37 | 39.53819 | 1.35826 | 23928 ft | 405 kts | 8° |
| 2026-05-05 10:37 | 39.56542 | 1.36739 | 23940 ft | 405 kts | 8° |
| 2026-05-05 10:38 | 39.59274 | 1.37645 | 23951 ft | 405 kts | 6° |
| 2026-05-05 10:38 | 39.62012 | 1.37933 | 23932 ft | 387 kts | 346° |
| 2026-05-05 10:38 | 39.64683 | 1.37551 | 23945 ft | 386 kts | 345° |
| 2026-05-05 10:38 | 39.67352 | 1.37154 | 23949 ft | 387 kts | 345° |
| 2026-05-05 10:39 | 39.70030 | 1.36765 | 23946 ft | 388 kts | 345° |
| 2026-05-05 10:39 | 39.72681 | 1.36391 | 23943 ft | 388 kts | 345° |
| 2026-05-05 10:39 | 39.75406 | 1.36017 | 23946 ft | 389 kts | 345° |
| 2026-05-05 10:39 | 39.78062 | 1.35660 | 23944 ft | 389 kts | 346° |
| 2026-05-05 10:40 | 39.80794 | 1.35296 | 23967 ft | 390 kts | 345° |
| 2026-05-05 10:40 | 39.83456 | 1.34943 | 23950 ft | 390 kts | 345° |
| 2026-05-05 10:40 | 39.86186 | 1.34738 | 23938 ft | 399 kts | 355° |
| 2026-05-05 10:40 | 39.88959 | 1.35295 | 23950 ft | 408 kts | 8° |
| 2026-05-05 10:41 | 39.91662 | 1.36513 | 23945 ft | 415 kts | 20° |
| 2026-05-05 10:41 | 39.94233 | 1.38263 | 23958 ft | 417 kts | 24° |
| 2026-05-05 10:41 | 39.96771 | 1.40096 | 23946 ft | 417 kts | 24° |
| 2026-05-05 10:41 | 39.99305 | 1.41947 | 23943 ft | 417 kts | 24° |
| 2026-05-05 10:42 | 40.04367 | 1.45625 | 23964 ft | 417 kts | 24° |
| 2026-05-05 10:42 | 40.06909 | 1.47456 | 23963 ft | 418 kts | 24° |
| 2026-05-05 10:42 | 40.09462 | 1.49287 | 23959 ft | 418 kts | 24° |
| 2026-05-05 10:43 | 40.11995 | 1.51103 | 23908 ft | 412 kts | 24° |
| 2026-05-05 10:43 | 40.14500 | 1.52899 | 23626 ft | 410 kts | 24° |
| 2026-05-05 10:43 | 40.16991 | 1.54684 | 23339 ft | 407 kts | 24° |
| 2026-05-05 10:43 | 40.19463 | 1.56456 | 22999 ft | 403 kts | 24° |
| 2026-05-05 10:44 | 40.21916 | 1.58216 | 22654 ft | 400 kts | 24° |
| 2026-05-05 10:44 | 40.24347 | 1.59961 | 22353 ft | 397 kts | 24° |
| 2026-05-05 10:44 | 40.26766 | 1.61699 | 22002 ft | 395 kts | 24° |
| 2026-05-05 10:44 | 40.29168 | 1.63426 | 21663 ft | 393 kts | 24° |
| 2026-05-05 10:45 | 40.31557 | 1.65145 | 21329 ft | 391 kts | 24° |
| 2026-05-05 10:45 | 40.33936 | 1.66858 | 21001 ft | 389 kts | 24° |
| 2026-05-05 10:45 | 40.36296 | 1.68560 | 20672 ft | 386 kts | 24° |
| 2026-05-05 10:45 | 40.38642 | 1.70253 | 20352 ft | 384 kts | 24° |
| 2026-05-05 10:46 | 40.40977 | 1.71939 | 20024 ft | 382 kts | 24° |
| 2026-05-05 10:46 | 40.43293 | 1.73613 | 19729 ft | 379 kts | 24° |
| 2026-05-05 10:46 | 40.44821 | 1.74718 | 19514 ft | 378 kts | 24° |
| 2026-05-05 10:46 | 40.47120 | 1.76381 | 19198 ft | 377 kts | 25° |
| 2026-05-05 10:47 | 40.49417 | 1.78044 | 18858 ft | 376 kts | 25° |
| 2026-05-05 10:47 | 40.51702 | 1.79699 | 18535 ft | 374 kts | 25° |
| 2026-05-05 10:47 | 40.53978 | 1.81351 | 18207 ft | 373 kts | 25° |
| 2026-05-05 10:47 | 40.56240 | 1.82993 | 17845 ft | 371 kts | 25° |
| 2026-05-05 10:48 | 40.58491 | 1.84629 | 17492 ft | 368 kts | 26° |
| 2026-05-05 10:48 | 40.60725 | 1.86253 | 17168 ft | 366 kts | 26° |
| 2026-05-05 10:48 | 40.62949 | 1.87872 | 16838 ft | 364 kts | 26° |
| 2026-05-05 10:48 | 40.65156 | 1.89479 | 16505 ft | 362 kts | 26° |
| 2026-05-05 10:49 | 40.67351 | 1.91078 | 16178 ft | 359 kts | 26° |
| 2026-05-05 10:49 | 40.69525 | 1.92663 | 15830 ft | 357 kts | 26° |
| 2026-05-05 10:49 | 40.71724 | 1.94244 | 15259 ft | 362 kts | 26° |
| 2026-05-05 10:49 | 40.73955 | 1.95834 | 14704 ft | 367 kts | 26° |
| 2026-05-05 10:50 | 40.76214 | 1.97443 | 14134 ft | 371 kts | 26° |
| 2026-05-05 10:50 | 40.78502 | 1.99075 | 13507 ft | 376 kts | 27° |
| 2026-05-05 10:50 | 40.80810 | 2.00726 | 12863 ft | 379 kts | 27° |
| 2026-05-05 10:50 | 40.83131 | 2.02390 | 12244 ft | 381 kts | 27° |
| 2026-05-05 10:51 | 40.85463 | 2.04063 | 11634 ft | 382 kts | 27° |
| 2026-05-05 10:51 | 40.87794 | 2.05737 | 11034 ft | 380 kts | 27° |
| 2026-05-05 10:51 | 40.90084 | 2.07383 | 10443 ft | 370 kts | 27° |
| 2026-05-05 10:51 | 40.92323 | 2.08995 | 9902 ft | 361 kts | 27° |
| 2026-05-05 10:52 | 40.94439 | 2.10563 | 9880 ft | 337 kts | 28° |
| 2026-05-05 10:52 | 40.96408 | 2.12048 | 9829 ft | 316 kts | 28° |
| 2026-05-05 10:52 | 40.98267 | 2.13454 | 9674 ft | 300 kts | 28° |
| 2026-05-05 10:52 | 41.00062 | 2.14810 | 9306 ft | 295 kts | 28° |
| 2026-05-05 10:53 | 41.01817 | 2.16132 | 8852 ft | 293 kts | 28° |
| 2026-05-05 10:53 | 41.03579 | 2.17460 | 8438 ft | 290 kts | 28° |
| 2026-05-05 10:53 | 41.05325 | 2.18776 | 8019 ft | 287 kts | 29° |
| 2026-05-05 10:53 | 41.07054 | 2.20079 | 7613 ft | 285 kts | 29° |
| 2026-05-05 10:54 | 41.08764 | 2.21370 | 7236 ft | 281 kts | 29° |
| 2026-05-05 10:54 | 41.10455 | 2.22646 | 6938 ft | 278 kts | 30° |
| 2026-05-05 10:54 | 41.12132 | 2.23912 | 6666 ft | 277 kts | 30° |
| 2026-05-05 10:54 | 41.13808 | 2.25179 | 6390 ft | 277 kts | 30° |
| 2026-05-05 10:55 | 41.15500 | 2.26458 | 6096 ft | 276 kts | 30° |
| 2026-05-05 10:55 | 41.17166 | 2.27714 | 5812 ft | 274 kts | 28° |
| 2026-05-05 10:55 | 41.18967 | 2.28551 | 5554 ft | 277 kts | 9° |
| 2026-05-05 10:55 | 41.20869 | 2.28923 | 5293 ft | 276 kts | 7° |
| 2026-05-05 10:56 | 41.22764 | 2.29284 | 5014 ft | 275 kts | 7° |
| 2026-05-05 10:56 | 41.24641 | 2.29654 | 4732 ft | 269 kts | 8° |
| 2026-05-05 10:56 | 41.26464 | 2.30027 | 4461 ft | 261 kts | 8° |
| 2026-05-05 10:56 | 41.28231 | 2.30397 | 4204 ft | 253 kts | 8° |
| 2026-05-05 10:57 | 41.29944 | 2.30760 | 3955 ft | 245 kts | 8° |
| 2026-05-05 10:57 | 41.31604 | 2.31114 | 3712 ft | 238 kts | 8° |
| 2026-05-05 10:57 | 41.33214 | 2.31461 | 3485 ft | 231 kts | 7° |
| 2026-05-05 10:57 | 41.34775 | 2.31557 | 3239 ft | 220 kts | 342° |
| 2026-05-05 10:58 | 41.35980 | 2.30468 | 3085 ft | 210 kts | 300° |
| 2026-05-05 10:58 | 41.36278 | 2.28639 | 2943 ft | 205 kts | 262° |
| 2026-05-05 10:58 | 41.35947 | 2.26812 | 2681 ft | 202 kts | 254° |
| 2026-05-05 10:58 | 41.35521 | 2.25045 | 2433 ft | 200 kts | 253° |
| 2026-05-05 10:59 | 41.35011 | 2.23331 | 2167 ft | 199 kts | 248° |
| 2026-05-05 10:59 | 41.34446 | 2.21669 | 1906 ft | 195 kts | 246° |
| 2026-05-05 10:59 | 41.33894 | 2.20067 | 1663 ft | 185 kts | 246° |
| 2026-05-05 10:59 | 41.33371 | 2.18548 | 1411 ft | 176 kts | 246° |
| 2026-05-05 11:00 | 41.32877 | 2.17105 | 1188 ft | 166 kts | 245° |
| 2026-05-05 11:00 | 41.32423 | 2.15784 | 941 ft | 149 kts | 246° |
| 2026-05-05 11:00 | 41.31997 | 2.14540 | 768 ft | 149 kts | 246° |
| 2026-05-05 11:00 | 41.31563 | 2.13271 | 570 ft | 150 kts | 246° |
| 2026-05-05 11:01 | 41.31126 | 2.12008 | 335 ft | 151 kts | 247° |
| 2026-05-05 11:01 | 41.30689 | 2.10726 | 121 ft | 154 kts | 246° |
| 2026-05-05 11:01 | 41.30247 | 2.09431 | 18 ft | 146 kts | 246° |
| 2026-05-05 11:01 | 41.29915 | 2.08450 | 25 ft | 86 kts | 245° |
| 2026-05-05 11:02 | 41.29764 | 2.07982 | 19 ft | 24 kts | 255° |
| 2026-05-05 11:02 | 41.29750 | 2.07779 | 15 ft | 22 kts | 272° |
| 2026-05-05 11:02 | 41.29777 | 2.07631 | 13 ft | 11 kts | 318° |
| 2026-05-05 11:02 | 41.29847 | 2.07587 | 14 ft | 11 kts | 335° |
| 2026-05-05 11:03 | 41.29917 | 2.07544 | 16 ft | 11 kts | 335° |
| 2026-05-05 11:03 | 41.29988 | 2.07545 | 18 ft | 11 kts | 43° |
| 2026-05-05 11:03 | 41.30021 | 2.07633 | 17 ft | 10 kts | 66° |
| 2026-05-05 11:03 | 41.30050 | 2.07719 | 17 ft | 10 kts | 66° |
| 2026-05-05 11:04 | 41.30078 | 2.07801 | 18 ft | 9 kts | 65° |
| 2026-05-05 11:04 | 41.30100 | 2.07866 | 19 ft | 7 kts | 65° |
| 2026-05-05 11:04 | 41.30138 | 2.07897 | 18 ft | 7 kts | 352° |
| 2026-05-05 11:04 | 41.30182 | 2.07872 | 20 ft | 7 kts | 335° |
| 2026-05-05 11:05 | 41.30215 | 2.07848 | 20 ft | 5 kts | 320° |
| 2026-05-05 11:05 | 41.30229 | 2.07814 | 20 ft | 3 kts | 281° |
| 2026-05-05 11:05 | 41.30230 | 2.07795 | 20 ft | 2 kts | 276° |
| 2026-05-05 11:05 | 41.30230 | 2.07791 | 20 ft | 0 kts | 276° |